createdAt,value
2022-11-04T00:01:45.329Z,2.30
2022-11-04T00:04:12.631Z,2.03
2022-11-04T00:06:39.433Z,2.53
2022-11-04T00:09:07.158Z,1.20
2022-11-04T00:11:52.207Z,1.10
2022-11-04T00:14:18.958Z,0.80
2022-11-04T00:17:03.761Z,0.90
2022-11-04T00:20:05.009Z,1.00
2022-11-04T00:22:49.791Z,1.60
2022-11-04T00:25:34.906Z,1.50
2022-11-04T00:28:23.745Z,8.10
2022-11-04T00:30:52.991Z,11.53
2022-11-04T00:33:25.698Z,8.83
2022-11-04T00:35:53.214Z,3.30
2022-11-04T00:38:19.627Z,3.57
2022-11-04T00:40:45.869Z,2.77
2022-11-04T00:43:12.329Z,3.13
2022-11-04T00:45:40.652Z,2.80
2022-11-04T00:48:07.155Z,1.87
2022-11-04T00:50:33.630Z,2.03
2022-11-04T00:53:00.735Z,3.03
2022-11-04T00:55:27.131Z,1.17
2022-11-04T00:57:53.701Z,1.60
2022-11-04T01:00:20.112Z,1.60
2022-11-04T01:02:46.693Z,1.00
2022-11-04T01:05:13.229Z,1.50
2022-11-04T01:07:43.538Z,1.27
2022-11-04T01:10:10.371Z,2.87
2022-11-04T01:12:36.593Z,2.07
2022-11-04T01:15:02.867Z,2.10
2022-11-04T01:17:29.104Z,2.87
2022-11-04T01:19:55.361Z,0.77
2022-11-04T01:22:21.639Z,1.03
2022-11-04T01:24:47.894Z,2.03
2022-11-04T01:27:14.143Z,1.87
2022-11-04T01:29:40.375Z,1.40
2022-11-04T01:32:06.624Z,1.33
2022-11-04T01:34:32.868Z,2.10
2022-11-04T01:36:59.125Z,2.60
2022-11-04T01:39:25.791Z,2.50
2022-11-04T01:41:52.128Z,1.50
2022-11-04T01:44:36.963Z,2.10
2022-11-04T01:47:03.981Z,2.10
2022-11-04T01:49:33.076Z,3.53
2022-11-04T01:52:02.576Z,1.43
2022-11-04T01:54:29.537Z,4.43
2022-11-04T01:56:56.794Z,3.53
2022-11-04T01:59:26.310Z,3.90
2022-11-04T02:01:52.789Z,1.10
2022-11-04T02:04:25.227Z,5.53
2022-11-04T02:06:53.039Z,2.30
2022-11-04T02:09:19.600Z,2.93
2022-11-04T02:12:04.546Z,2.67
2022-11-04T02:14:32.031Z,2.50
2022-11-04T02:17:11.858Z,4.57
2022-11-04T02:20:01.227Z,4.90
2022-11-04T02:22:41.097Z,3.10
2022-11-04T02:25:25.982Z,2.00
2022-11-04T02:28:11.566Z,2.23
2022-11-04T02:30:47.827Z,3.57
2022-11-04T02:33:14.053Z,2.37
2022-11-04T02:35:47.618Z,3.70
2022-11-04T02:38:16.635Z,3.20
2022-11-04T02:40:44.729Z,3.57
2022-11-04T02:43:11.500Z,2.90
2022-11-04T02:45:41.574Z,4.00
2022-11-04T02:48:11.971Z,3.37
2022-11-04T02:50:41.201Z,3.13
2022-11-04T02:53:11.500Z,2.20
2022-11-04T02:55:40.526Z,2.97
2022-11-04T02:58:09.986Z,1.87
2022-11-04T03:00:39.082Z,2.80
2022-11-04T03:03:09.773Z,6.53
2022-11-04T03:05:38.142Z,4.90
2022-11-04T03:08:06.883Z,2.87
2022-11-04T03:10:35.810Z,2.80
2022-11-04T03:13:16.582Z,3.60
2022-11-04T03:15:48.274Z,3.53
2022-11-04T03:18:32.987Z,2.43
2022-11-04T03:21:01.656Z,1.10
2022-11-04T03:23:27.924Z,2.47
2022-11-04T03:25:57.683Z,4.33
2022-11-04T03:28:46.399Z,4.20
2022-11-04T03:31:17.732Z,3.07
2022-11-04T03:33:47.335Z,3.13
2022-11-04T03:36:13.642Z,2.23
2022-11-04T03:38:41.112Z,3.30
2022-11-04T03:41:10.543Z,2.83
2022-11-04T03:43:37.240Z,4.43
2022-11-04T03:46:03.890Z,2.57
2022-11-04T03:48:30.142Z,3.27
2022-11-04T03:50:56.371Z,3.77
2022-11-04T03:53:23.768Z,3.70
2022-11-04T03:56:14.555Z,2.83
2022-11-04T03:58:59.544Z,3.93
2022-11-04T04:01:30.473Z,6.30
2022-11-04T04:04:17.279Z,5.67
2022-11-04T04:06:45.036Z,4.00
2022-11-04T04:09:23.952Z,2.63
2022-11-04T04:12:01.983Z,3.23
2022-11-04T04:14:40.349Z,5.13
2022-11-04T04:19:43.419Z,3.03
2022-11-04T04:22:13.146Z,3.10
2022-11-04T04:25:00.598Z,2.20
2022-11-04T04:27:32.309Z,2.60
2022-11-04T04:30:06.059Z,2.57
2022-11-04T04:32:39.298Z,15.07
2022-11-04T04:35:25.271Z,16.80
2022-11-04T04:37:52.352Z,10.80
2022-11-04T04:40:38.875Z,8.73
2022-11-04T04:43:23.990Z,8.03
2022-11-04T04:45:52.145Z,9.00
2022-11-04T04:48:18.494Z,7.37
2022-11-04T04:50:46.658Z,6.40
2022-11-04T04:53:12.902Z,6.00
2022-11-04T04:55:41.826Z,4.60
2022-11-04T04:58:08.487Z,5.43
2022-11-04T05:00:35.055Z,5.63
2022-11-04T05:03:01.448Z,6.50
2022-11-04T05:05:27.705Z,6.07
2022-11-04T05:07:53.930Z,5.37
2022-11-04T05:10:20.518Z,4.50
2022-11-04T05:13:05.727Z,2.67
2022-11-04T05:15:32.283Z,4.13
2022-11-04T05:17:59.543Z,6.33
2022-11-04T05:20:26.110Z,5.90
2022-11-04T05:22:52.339Z,4.60
2022-11-04T05:25:18.576Z,5.43
2022-11-04T05:27:44.843Z,4.83
2022-11-04T05:30:11.657Z,2.03
2022-11-04T05:32:38.119Z,3.73
2022-11-04T05:35:04.616Z,3.00
2022-11-04T05:37:30.832Z,5.70
2022-11-04T05:39:57.122Z,5.03
2022-11-04T05:42:23.346Z,2.97
2022-11-04T05:44:49.578Z,4.67
2022-11-04T05:47:16.747Z,3.43
2022-11-04T05:49:42.995Z,6.30
2022-11-04T05:52:09.359Z,2.93
2022-11-04T05:54:37.083Z,4.67
2022-11-04T05:57:03.390Z,3.13
2022-11-04T05:59:29.639Z,5.10
2022-11-04T06:01:56.100Z,4.30
2022-11-04T06:04:23.161Z,11.07
2022-11-04T06:06:49.411Z,7.73
2022-11-04T06:09:15.729Z,4.37
2022-11-04T06:11:41.964Z,8.87
2022-11-04T06:14:08.288Z,13.17
2022-11-04T06:16:34.567Z,8.60
2022-11-04T06:19:05.823Z,5.53
2022-11-04T06:21:36.021Z,6.00
2022-11-04T06:24:02.349Z,6.10
2022-11-04T06:26:30.689Z,7.03
2022-11-04T06:28:57.459Z,6.40
2022-11-04T06:31:23.749Z,5.53
2022-11-04T06:33:50.054Z,5.77
2022-11-04T06:36:16.818Z,8.23
2022-11-04T06:38:43.254Z,5.20
2022-11-04T06:41:12.245Z,3.90
2022-11-04T06:43:38.557Z,5.43
2022-11-04T06:46:06.010Z,9.97
2022-11-04T06:48:32.315Z,29.73
2022-11-04T06:50:59.216Z,15.03
2022-11-04T06:53:26.002Z,5.97
2022-11-04T06:55:52.891Z,6.00
2022-11-04T06:58:19.667Z,3.80
2022-11-04T07:00:52.683Z,6.53
2022-11-04T07:03:19.068Z,7.33
2022-11-04T07:05:45.426Z,6.60
2022-11-04T07:08:11.962Z,6.93
2022-11-04T07:10:38.494Z,5.67
2022-11-04T07:13:05.823Z,6.47
2022-11-04T07:15:33.171Z,8.57
2022-11-04T07:17:59.799Z,11.17
2022-11-04T07:20:26.232Z,7.80
2022-11-04T07:22:54.117Z,15.63
2022-11-04T07:25:20.630Z,4.27
2022-11-04T07:27:46.879Z,3.73
2022-11-04T07:30:13.253Z,8.23
2022-11-04T07:32:39.520Z,4.20
2022-11-04T07:35:06.055Z,3.97
2022-11-04T07:37:32.284Z,5.33
2022-11-04T07:39:58.516Z,5.87
2022-11-04T07:42:24.726Z,6.97
2022-11-04T07:44:50.971Z,6.13
2022-11-04T07:47:17.252Z,4.90
2022-11-04T07:49:44.435Z,5.03
2022-11-04T07:52:10.700Z,8.57
2022-11-04T07:54:37.153Z,3.83
2022-11-04T07:57:03.534Z,4.37
2022-11-04T07:59:29.935Z,39.30
2022-11-04T08:01:56.352Z,49.70
2022-11-04T08:04:22.678Z,9.70
2022-11-04T08:06:48.920Z,6.03
2022-11-04T08:09:34.026Z,5.63
2022-11-04T08:12:00.251Z,7.73
2022-11-04T08:14:26.466Z,5.90
2022-11-04T08:16:52.719Z,4.97
2022-11-04T08:19:19.088Z,5.67
2022-11-04T08:21:45.319Z,4.77
2022-11-04T08:24:25.053Z,94.97
2022-11-04T08:26:51.322Z,44.83
2022-11-04T08:29:17.700Z,6.50
2022-11-04T08:31:43.952Z,4.53
2022-11-04T08:34:10.425Z,4.47
2022-11-04T08:36:37.554Z,5.23
2022-11-04T08:39:10.425Z,3.63
2022-11-04T08:41:38.786Z,6.83
2022-11-04T08:44:06.897Z,6.07
2022-11-04T08:46:35.765Z,4.03
2022-11-04T08:49:07.014Z,4.27
2022-11-04T08:51:37.986Z,4.57
2022-11-04T08:54:05.237Z,6.10
2022-11-04T08:56:32.728Z,5.20
2022-11-04T08:58:59.817Z,8.20
2022-11-04T09:01:30.061Z,7.33
2022-11-04T09:04:01.185Z,5.10
2022-11-04T09:06:29.745Z,4.30
2022-11-04T09:08:58.306Z,8.03
2022-11-04T09:11:24.827Z,7.67
2022-11-04T09:13:51.144Z,3.70
2022-11-04T09:16:17.495Z,9.63
2022-11-04T09:18:44.047Z,3.43
2022-11-04T09:21:10.866Z,4.70
2022-11-04T09:23:37.612Z,9.97
2022-11-04T09:26:05.515Z,20.87
2022-11-04T09:28:34.687Z,65.90
2022-11-04T09:31:04.247Z,61.43
2022-11-04T09:33:30.638Z,12.90
2022-11-04T09:35:57.660Z,4.00
2022-11-04T09:38:27.307Z,4.77
2022-11-04T09:40:53.707Z,3.50
2022-11-04T09:43:38.874Z,5.13
2022-11-04T09:46:05.310Z,4.70
2022-11-04T09:48:33.742Z,3.17
2022-11-04T09:51:02.096Z,3.67
2022-11-04T09:53:41.917Z,3.50
2022-11-04T09:56:13.432Z,4.93
2022-11-04T09:58:39.834Z,5.50
2022-11-04T10:01:10.698Z,6.47
2022-11-04T10:03:42.874Z,4.37
2022-11-04T10:06:18.387Z,4.80
2022-11-04T10:09:11.049Z,7.77
2022-11-04T10:11:42.402Z,45.03
2022-11-04T10:14:31.390Z,24.13
2022-11-04T10:17:09.730Z,5.27
2022-11-04T10:19:52.034Z,2.33
2022-11-04T10:22:24.547Z,3.37
2022-11-04T10:25:11.059Z,16.47
2022-11-04T10:27:38.855Z,14.30
2022-11-04T10:30:25.552Z,5.03
2022-11-04T10:32:56.966Z,3.63
2022-11-04T10:35:47.020Z,19.10
2022-11-04T10:38:18.824Z,7.37
2022-11-04T10:40:46.684Z,5.13
2022-11-04T10:43:15.328Z,4.03
2022-11-04T10:45:47.507Z,3.70
2022-11-04T10:48:19.548Z,4.10
2022-11-04T10:50:56.394Z,3.27
2022-11-04T10:53:24.723Z,10.73
2022-11-04T10:55:54.009Z,38.80
2022-11-04T10:58:25.084Z,7.50
2022-11-04T11:00:53.443Z,3.93
2022-11-04T11:03:25.970Z,4.33
2022-11-04T11:05:52.729Z,3.13
2022-11-04T11:08:30.379Z,4.07
2022-11-04T11:10:56.832Z,3.27
2022-11-04T11:13:28.246Z,2.40
2022-11-04T11:16:05.443Z,4.70
2022-11-04T11:18:31.666Z,4.37
2022-11-04T11:21:07.785Z,2.40
2022-11-04T11:23:37.035Z,1.83
2022-11-04T11:26:04.048Z,3.30
2022-11-04T11:28:30.658Z,3.50
2022-11-04T11:30:57.327Z,2.87
2022-11-04T11:33:31.214Z,2.67
2022-11-04T11:36:00.202Z,3.10
2022-11-04T11:38:27.879Z,3.63
2022-11-04T11:41:23.826Z,2.90
2022-11-04T11:43:52.974Z,1.57
2022-11-04T11:46:26.537Z,3.70
2022-11-04T11:48:54.462Z,2.20
2022-11-04T11:51:31.520Z,2.33
2022-11-04T11:54:04.223Z,3.13
2022-11-04T11:56:59.203Z,3.17
2022-11-04T12:02:20.398Z,2.67
2022-11-04T12:10:44.624Z,2.60
2022-11-04T12:13:23.618Z,5.07
2022-11-04T12:15:59.886Z,3.97
2022-11-04T12:18:39.010Z,1.40
2022-11-04T12:21:08.356Z,2.73
2022-11-04T12:23:54.983Z,3.13
2022-11-04T12:26:38.115Z,11.33
2022-11-04T12:29:07.414Z,3.07
2022-11-04T12:31:51.183Z,2.63
2022-11-04T12:34:29.655Z,3.90
2022-11-04T12:37:10.542Z,4.90
2022-11-04T12:39:52.442Z,2.13
2022-11-04T12:42:37.669Z,4.27
2022-11-04T12:45:13.390Z,4.33
2022-11-04T12:47:42.812Z,5.17
2022-11-04T12:50:28.886Z,2.90
2022-11-04T12:53:22.383Z,3.80
2022-11-04T12:56:07.496Z,1.77
2022-11-04T12:58:38.844Z,3.03
2022-11-04T13:01:14.057Z,2.20
2022-11-04T13:04:02.034Z,3.73
2022-11-04T13:06:33.733Z,2.27
2022-11-04T13:09:10.034Z,5.47
2022-11-04T13:11:40.507Z,3.53
2022-11-04T13:14:16.163Z,4.17
2022-11-04T13:16:44.508Z,39.67
2022-11-04T13:19:25.671Z,15.00
2022-11-04T13:21:52.986Z,5.77
2022-11-04T13:24:30.309Z,3.37
2022-11-04T13:26:58.959Z,4.20
2022-11-04T13:29:25.950Z,2.13
2022-11-04T13:32:04.542Z,3.63
2022-11-04T13:34:37.529Z,3.60
2022-11-04T13:37:11.199Z,4.70
2022-11-04T13:39:40.882Z,1.83
2022-11-04T13:42:26.004Z,2.03
2022-11-04T13:44:56.786Z,2.97
2022-11-04T13:47:36.898Z,2.77
2022-11-04T13:50:03.840Z,1.37
2022-11-04T13:52:31.484Z,2.17
2022-11-04T13:54:59.237Z,3.00
2022-11-04T13:57:26.969Z,2.37
2022-11-04T14:00:19.237Z,3.03
2022-11-04T14:02:53.045Z,3.03
2022-11-04T14:05:28.647Z,2.27
2022-11-04T14:08:03.938Z,2.73
2022-11-04T14:10:36.511Z,2.03
2022-11-04T14:13:21.585Z,4.13
2022-11-04T14:16:06.754Z,3.17
2022-11-04T14:18:34.845Z,2.50
2022-11-04T14:21:06.636Z,49.17
2022-11-04T14:23:33.550Z,3.03
2022-11-04T14:26:04.326Z,4.03
2022-11-04T14:28:31.342Z,3.90
2022-11-04T14:30:59.368Z,6.07
2022-11-04T14:33:32.166Z,3.60
2022-11-04T14:36:14.099Z,3.90
2022-11-04T14:38:40.920Z,3.70
2022-11-04T14:41:25.175Z,3.90
2022-11-04T14:43:53.527Z,3.83
2022-11-04T14:46:25.236Z,4.17
2022-11-04T14:48:54.568Z,3.00
2022-11-04T14:51:24.785Z,3.33
2022-11-04T14:53:52.379Z,2.10
2022-11-04T14:56:24.190Z,2.27
2022-11-04T14:58:58.896Z,4.40
2022-11-04T15:01:31.281Z,5.07
2022-11-04T15:04:12.210Z,5.07
2022-11-04T15:06:53.953Z,4.13
2022-11-04T15:09:28.353Z,6.27
2022-11-04T15:12:25.027Z,4.53
2022-11-04T15:14:52.281Z,6.13
2022-11-04T15:17:19.990Z,3.40
2022-11-04T15:19:48.639Z,4.93
2022-11-04T15:22:15.628Z,4.97
2022-11-04T15:24:42.609Z,3.27
2022-11-04T15:27:16.364Z,5.90
2022-11-04T15:29:56.452Z,5.33
2022-11-04T15:32:23.372Z,9.73
2022-11-04T15:34:50.094Z,21.53
2022-11-04T15:37:17.178Z,14.67
2022-11-04T15:39:45.009Z,7.57
2022-11-04T15:42:33.621Z,8.30
2022-11-04T15:45:20.204Z,9.80
2022-11-04T15:47:46.453Z,7.40
2022-11-04T15:50:21.863Z,4.53
2022-11-04T15:52:50.521Z,5.57
2022-11-04T15:55:25.284Z,8.13
2022-11-04T15:57:51.973Z,4.30
2022-11-04T16:00:22.615Z,6.47
2022-11-04T16:02:50.403Z,4.97
2022-11-04T16:05:21.309Z,6.70
2022-11-04T16:07:51.662Z,5.67
2022-11-04T16:10:27.521Z,9.37
2022-11-04T16:12:59.905Z,5.50
2022-11-04T16:15:32.238Z,5.80
2022-11-04T16:17:58.683Z,6.23
2022-11-04T16:20:24.948Z,5.00
2022-11-04T16:22:56.105Z,7.90
2022-11-04T16:25:23.134Z,8.30
2022-11-04T16:27:50.107Z,7.17
2022-11-04T16:30:20.488Z,8.97
2022-11-04T16:32:51.667Z,9.13
2022-11-04T16:35:17.960Z,10.80
2022-11-04T16:37:44.315Z,7.30
2022-11-04T16:40:10.656Z,6.60
2022-11-04T16:42:37.033Z,7.10
2022-11-04T16:45:04.294Z,6.90
2022-11-04T16:47:30.842Z,6.87
2022-11-04T16:50:01.417Z,7.97
2022-11-04T16:52:29.023Z,6.07
2022-11-04T16:54:56.263Z,7.30
2022-11-04T16:57:24.689Z,6.87
2022-11-04T16:59:51.002Z,6.60
2022-11-04T17:02:26.903Z,11.07
2022-11-04T17:04:53.277Z,11.20
2022-11-04T17:07:20.044Z,9.70
2022-11-04T17:09:46.347Z,8.27
2022-11-04T17:12:12.795Z,9.17
2022-11-04T17:14:39.083Z,8.03
2022-11-04T17:17:05.452Z,8.40
2022-11-04T17:19:34.701Z,13.63
2022-11-04T17:22:02.888Z,10.03
2022-11-04T17:24:31.330Z,8.00
2022-11-04T17:26:57.642Z,13.17
2022-11-04T17:29:23.940Z,10.43
2022-11-04T17:31:50.180Z,10.40
2022-11-04T17:34:16.427Z,23.43
2022-11-04T17:36:42.799Z,12.03
2022-11-04T17:39:09.134Z,12.00
2022-11-04T17:41:54.055Z,13.27
2022-11-04T17:44:20.306Z,12.07
2022-11-04T17:46:48.706Z,15.17
2022-11-04T17:49:16.375Z,11.13
2022-11-04T17:51:43.915Z,16.60
2022-11-04T17:54:10.551Z,14.23
2022-11-04T17:56:37.678Z,13.97
2022-11-04T17:59:04.477Z,11.20
2022-11-04T18:01:31.705Z,16.23
2022-11-04T18:03:58.144Z,13.50
2022-11-04T18:06:25.279Z,13.63
2022-11-04T18:08:55.706Z,11.67
2022-11-04T18:11:41.339Z,13.23
2022-11-04T18:14:12.284Z,13.27
2022-11-04T18:16:42.738Z,13.03
2022-11-04T18:19:09.562Z,16.40
2022-11-04T18:21:35.834Z,13.33
2022-11-04T18:24:02.113Z,16.23
2022-11-04T18:26:28.355Z,31.53
2022-11-04T18:28:54.740Z,32.00
2022-11-04T18:31:26.169Z,15.53
2022-11-04T18:33:52.421Z,13.97
2022-11-04T18:36:19.150Z,16.47
2022-11-04T18:38:46.170Z,15.80
2022-11-04T18:41:12.595Z,17.73
2022-11-04T18:43:38.919Z,16.50
2022-11-04T18:46:09.617Z,14.30
2022-11-04T18:48:37.846Z,17.77
2022-11-04T18:51:05.032Z,12.00
2022-11-04T18:53:31.366Z,14.20
2022-11-04T18:56:01.411Z,14.17
2022-11-04T18:58:30.310Z,14.13
2022-11-04T19:00:56.595Z,15.13
2022-11-04T19:03:23.405Z,16.47
2022-11-04T19:05:49.667Z,16.77
2022-11-04T19:08:15.905Z,16.47
2022-11-04T19:10:59.748Z,14.47
2022-11-04T19:13:42.272Z,17.47
2022-11-04T19:16:09.877Z,17.83
2022-11-04T19:18:36.433Z,15.60
2022-11-04T19:21:03.793Z,17.00
2022-11-04T19:23:30.921Z,17.50
2022-11-04T19:26:02.057Z,16.33
2022-11-04T19:28:40.489Z,23.43
2022-11-04T19:31:19.298Z,65.87
2022-11-04T19:33:46.009Z,19.03
2022-11-04T19:36:12.990Z,19.07
2022-11-04T19:38:39.554Z,20.63
2022-11-04T19:41:30.002Z,20.23
2022-11-04T19:43:56.341Z,18.60
2022-11-04T19:46:22.940Z,19.13
2022-11-04T19:48:49.193Z,18.60
2022-11-04T19:51:15.400Z,18.77
2022-11-04T19:53:41.895Z,18.90
2022-11-04T19:56:08.130Z,16.73
2022-11-04T19:58:34.421Z,17.07
2022-11-04T20:01:04.494Z,19.20
2022-11-04T20:03:30.947Z,17.30
2022-11-04T20:05:57.646Z,18.43
2022-11-04T20:08:23.946Z,18.97
2022-11-04T20:10:50.243Z,19.53
2022-11-04T20:13:37.081Z,24.03
2022-11-04T20:16:11.091Z,20.87
2022-11-04T20:18:37.365Z,23.40
2022-11-04T20:21:04.204Z,19.37
2022-11-04T20:23:30.470Z,21.57
2022-11-04T20:25:56.747Z,19.63
2022-11-04T20:28:22.988Z,23.57
2022-11-04T20:30:49.231Z,22.00
2022-11-04T20:33:15.451Z,24.93
2022-11-04T20:35:41.806Z,25.27
2022-11-04T20:38:08.441Z,23.77
2022-11-04T20:40:35.121Z,22.97
2022-11-04T20:43:16.248Z,25.00
2022-11-04T20:45:42.490Z,23.30
2022-11-04T20:48:09.060Z,26.47
2022-11-04T20:50:36.106Z,25.67
2022-11-04T20:53:02.367Z,23.33
2022-11-04T20:55:28.620Z,26.47
2022-11-04T20:57:54.879Z,26.77
2022-11-04T21:00:21.175Z,25.20
2022-11-04T21:02:47.527Z,23.23
2022-11-04T21:05:14.874Z,28.00
2022-11-04T21:07:41.155Z,24.17
2022-11-04T21:10:07.597Z,31.40
2022-11-04T21:12:34.050Z,23.83
2022-11-04T21:15:00.353Z,25.97
2022-11-04T21:17:26.610Z,24.90
2022-11-04T21:19:52.969Z,24.50
2022-11-04T21:22:19.419Z,28.03
2022-11-04T21:24:45.769Z,26.57
2022-11-04T21:27:31.059Z,30.63
2022-11-04T21:29:57.292Z,27.93
2022-11-04T21:32:23.574Z,26.67
2022-11-04T21:34:49.840Z,33.07
2022-11-04T21:37:16.111Z,31.20
2022-11-04T21:39:42.568Z,30.73
2022-11-04T21:42:08.791Z,28.03
2022-11-04T21:44:35.052Z,33.70
2022-11-04T21:47:01.323Z,32.33
2022-11-04T21:49:27.548Z,32.73
2022-11-04T21:51:53.775Z,33.00
2022-11-04T21:54:20.032Z,32.23
2022-11-04T21:56:46.571Z,30.93
2022-11-04T21:59:17.969Z,31.07
2022-11-04T22:01:44.860Z,29.83
2022-11-04T22:04:11.265Z,27.47
2022-11-04T22:06:37.571Z,30.67
2022-11-04T22:09:05.224Z,24.03
2022-11-04T22:14:11.715Z,27.63
2022-11-04T22:16:39.017Z,28.03
2022-11-04T22:19:06.713Z,23.53
2022-11-04T22:21:33.284Z,26.13
2022-11-04T22:23:59.911Z,26.67
2022-11-04T22:26:27.338Z,22.93
2022-11-04T22:28:54.492Z,24.87
2022-11-04T22:31:22.444Z,28.47
2022-11-04T22:33:49.538Z,27.40
2022-11-04T22:36:15.774Z,24.10
2022-11-04T22:38:42.575Z,27.30
2022-11-04T22:41:10.567Z,22.77
2022-11-04T22:43:36.819Z,27.37
2022-11-04T22:46:05.056Z,22.77
2022-11-04T22:48:31.282Z,25.00
2022-11-04T22:50:58.354Z,26.13
2022-11-04T22:53:25.218Z,49.83
2022-11-04T22:55:51.827Z,22.53
2022-11-04T22:58:18.320Z,22.50
2022-11-04T23:00:44.877Z,20.50
2022-11-04T23:03:11.831Z,21.47
2022-11-04T23:05:38.305Z,19.10
2022-11-04T23:08:04.671Z,19.07
2022-11-04T23:10:49.774Z,16.50
2022-11-04T23:13:35.364Z,19.03
2022-11-04T23:16:20.100Z,18.83
2022-11-04T23:18:48.712Z,19.67
2022-11-04T23:21:34.854Z,18.23
2022-11-04T23:24:19.557Z,15.73
2022-11-04T23:26:46.360Z,14.93
2022-11-04T23:29:31.830Z,17.63
2022-11-04T23:31:58.089Z,15.17
2022-11-04T23:34:43.109Z,16.37
2022-11-04T23:37:13.283Z,14.77
2022-11-04T23:39:39.579Z,14.87
2022-11-04T23:42:18.134Z,14.93
2022-11-04T23:45:06.380Z,15.67
2022-11-04T23:47:52.750Z,15.30
2022-11-04T23:50:37.453Z,15.90
2022-11-04T23:53:22.840Z,15.53
2022-11-04T23:56:08.354Z,17.93
2022-11-04T23:58:53.471Z,16.43
